Kaiyo — JGBF — position and weather

sailwx.info

Track history (hours):
 
Tides and Currents Weather Stations Pressure Air Temp Water Temp Dewpoint Dewpoint Depression Visibility Wind Speed Wind Dir Waves Ship Positions

Oceanographic research ship Kaiyo (Japan)

Detailed information on ship capabilities available from University of Delaware's Ocean Information Center.

Last reported at 2019-Sep-19 23:56 UTC. Time now 2019-Sep-21 05:24 UTC.
Position N 35°38' E 139°47'.

Type: Cargo ship. MMSI: 431100049.

Date/timePositionNaut miles runAvg speedWind from/ knotsBaromVisibWave heightAir tempDewpointWater temp
2019-Sep-19 23:56N 35°38' E 139°47'3 6.5
2019-Sep-19 23:26N 35°35' E 139°48'4 9.2
2019-Sep-19 23:00N 35°34' E 139°52'2 2.8
2019-Sep-19 22:22N 35°35' E 139°54'1 1.0
2019-Sep-19 21:46N 35°35' E 139°55'1 4.7
2019-Sep-19 21:28N 35°35' E 139°53'0 0.8
2019-Sep-19 21:00N 35°35' E 139°53'0 0.7
2019-Sep-19 20:30N 35°35' E 139°53'1 2.2
2019-Sep-19 20:00N 35°34' E 139°53'1 1.5
2019-Sep-19 19:30N 35°35' E 139°53'0 0.8
2019-Sep-19 19:00N 35°35' E 139°53'0 0.8
2019-Sep-19 18:30N 35°35' E 139°54'1 0.7
2019-Sep-19 17:45N 35°36' E 139°54'0 0.6
2019-Sep-19 17:26N 35°36' E 139°54'2 3.6
2019-Sep-19 17:00N 35°34' E 139°53'0 0.7
2019-Sep-19 16:30N 35°35' E 139°54'0 0.7
2019-Sep-19 15:57N 35°35' E 139°54'8 9.0
2019-Sep-19 15:03N 35°27' E 139°50'411.2
2019-Sep-19 14:44N 35°25' E 139°47'211.0
2019-Sep-19 14:30N 35°23' E 139°46'510.0
2019-Sep-19 14:00N 35°18' E 139°45'5 9.6
2019-Sep-19 13:30N 35°13' E 139°47'611.0
2019-Sep-19 12:58N 35°07' E 139°47'  
Track history (hours):
 
Tides and Currents Weather Stations Pressure Air Temp Water Temp Dewpoint Dewpoint Depression Visibility Wind Speed Wind Dir Waves Ship Positions

Oceanographic research ship Kaiyo (Japan)

Detailed information on ship capabilities available from University of Delaware's Ocean Information Center.

Last reported at 2019-Sep-19 23:56 UTC. Time now 2019-Sep-21 05:24 UTC.
Position N 35°38' E 139°47'.

Type: Cargo ship. MMSI: 431100049.

Date/timePositionNaut miles runAvg speedWind from/ knotsBaromVisibWave heightAir tempDewpointWater temp
2019-Sep-19 23:56N 35°38' E 139°47'3 6.5
2019-Sep-19 23:26N 35°35' E 139°48'4 9.2
2019-Sep-19 23:00N 35°34' E 139°52'2 2.8
2019-Sep-19 22:22N 35°35' E 139°54'1 1.0
2019-Sep-19 21:46N 35°35' E 139°55'1 4.7
2019-Sep-19 21:28N 35°35' E 139°53'0 0.8
2019-Sep-19 21:00N 35°35' E 139°53'0 0.7
2019-Sep-19 20:30N 35°35' E 139°53'1 2.2
2019-Sep-19 20:00N 35°34' E 139°53'1 1.5
2019-Sep-19 19:30N 35°35' E 139°53'0 0.8
2019-Sep-19 19:00N 35°35' E 139°53'0 0.8
2019-Sep-19 18:30N 35°35' E 139°54'1 0.7
2019-Sep-19 17:45N 35°36' E 139°54'0 0.6
2019-Sep-19 17:26N 35°36' E 139°54'2 3.6
2019-Sep-19 17:00N 35°34' E 139°53'0 0.7
2019-Sep-19 16:30N 35°35' E 139°54'0 0.7
2019-Sep-19 15:57N 35°35' E 139°54'8 9.0
2019-Sep-19 15:03N 35°27' E 139°50'411.2
2019-Sep-19 14:44N 35°25' E 139°47'211.0
2019-Sep-19 14:30N 35°23' E 139°46'510.0
2019-Sep-19 14:00N 35°18' E 139°45'5 9.6
2019-Sep-19 13:30N 35°13' E 139°47'611.0
2019-Sep-19 12:58N 35°07' E 139°47'  

Dump ship's entire track history